sensor_id;sensor_type;location;lat;lon;timestamp;temperature;humidity
10885;DHT22;5495;53.252;10.390;2022-10-17T00:02:23;13.00;99.90
10885;DHT22;5495;53.252;10.390;2022-10-17T00:04:52;13.00;99.90
10885;DHT22;5495;53.252;10.390;2022-10-17T00:07:19;13.00;99.90
10885;DHT22;5495;53.252;10.390;2022-10-17T00:09:47;13.00;99.90
10885;DHT22;5495;53.252;10.390;2022-10-17T00:12:15;13.00;99.90
10885;DHT22;5495;53.252;10.390;2022-10-17T00:14:42;13.00;99.90
10885;DHT22;5495;53.252;10.390;2022-10-17T00:17:09;13.00;99.90
10885;DHT22;5495;53.252;10.390;2022-10-17T00:19:37;13.00;99.90
10885;DHT22;5495;53.252;10.390;2022-10-17T00:22:06;12.90;99.90
10885;DHT22;5495;53.252;10.390;2022-10-17T00:24:33;12.90;99.90
10885;DHT22;5495;53.252;10.390;2022-10-17T00:27:07;12.90;99.90
10885;DHT22;5495;53.252;10.390;2022-10-17T00:29:35;12.90;99.90
10885;DHT22;5495;53.252;10.390;2022-10-17T00:32:02;13.00;99.90
10885;DHT22;5495;53.252;10.390;2022-10-17T00:34:31;12.90;99.90
10885;DHT22;5495;53.252;10.390;2022-10-17T00:36:58;12.90;99.90
10885;DHT22;5495;53.252;10.390;2022-10-17T00:39:27;12.90;99.90
10885;DHT22;5495;53.252;10.390;2022-10-17T00:41:54;12.90;99.90
10885;DHT22;5495;53.252;10.390;2022-10-17T00:47:29;12.90;99.90
10885;DHT22;5495;53.252;10.390;2022-10-17T00:49:58;13.00;99.90
10885;DHT22;5495;53.252;10.390;2022-10-17T00:52:28;13.00;99.90
10885;DHT22;5495;53.252;10.390;2022-10-17T00:55:19;13.00;99.90
10885;DHT22;5495;53.252;10.390;2022-10-17T00:57:47;13.00;99.90
10885;DHT22;5495;53.252;10.390;2022-10-17T01:00:16;13.00;99.90
10885;DHT22;5495;53.252;10.390;2022-10-17T01:02:44;13.00;99.90
10885;DHT22;5495;53.252;10.390;2022-10-17T01:05:14;13.00;99.90
10885;DHT22;5495;53.252;10.390;2022-10-17T01:07:42;13.00;99.90
10885;DHT22;5495;53.252;10.390;2022-10-17T01:10:10;13.10;99.90
10885;DHT22;5495;53.252;10.390;2022-10-17T01:12:54;13.00;99.90
10885;DHT22;5495;53.252;10.390;2022-10-17T01:15:41;13.10;99.90
10885;DHT22;5495;53.252;10.390;2022-10-17T01:18:27;13.10;99.90
10885;DHT22;5495;53.252;10.390;2022-10-17T01:21:24;13.10;99.90
10885;DHT22;5495;53.252;10.390;2022-10-17T01:30:43;13.00;99.90
10885;DHT22;5495;53.252;10.390;2022-10-17T01:33:14;13.00;99.90
10885;DHT22;5495;53.252;10.390;2022-10-17T01:35:53;13.10;99.90
10885;DHT22;5495;53.252;10.390;2022-10-17T01:38:25;13.00;99.90
10885;DHT22;5495;53.252;10.390;2022-10-17T01:40:59;13.00;99.90
10885;DHT22;5495;53.252;10.390;2022-10-17T01:43:34;13.00;99.90
10885;DHT22;5495;53.252;10.390;2022-10-17T01:46:11;13.00;99.90
10885;DHT22;5495;53.252;10.390;2022-10-17T01:48:43;13.00;99.90
10885;DHT22;5495;53.252;10.390;2022-10-17T01:51:15;13.00;99.90
10885;DHT22;5495;53.252;10.390;2022-10-17T01:53:48;13.00;99.90
10885;DHT22;5495;53.252;10.390;2022-10-17T01:56:17;13.00;99.90
10885;DHT22;5495;53.252;10.390;2022-10-17T01:58:49;13.00;99.90
10885;DHT22;5495;53.252;10.390;2022-10-17T02:01:20;13.10;99.90
10885;DHT22;5495;53.252;10.390;2022-10-17T02:03:50;13.10;99.90
10885;DHT22;5495;53.252;10.390;2022-10-17T02:06:18;13.10;99.90
10885;DHT22;5495;53.252;10.390;2022-10-17T02:08:47;13.10;99.90
10885;DHT22;5495;53.252;10.390;2022-10-17T02:11:18;13.10;99.90
10885;DHT22;5495;53.252;10.390;2022-10-17T02:14:08;13.10;99.90
10885;DHT22;5495;53.252;10.390;2022-10-17T02:16:44;13.10;99.90
10885;DHT22;5495;53.252;10.390;2022-10-17T02:19:34;13.20;99.90
10885;DHT22;5495;53.252;10.390;2022-10-17T02:22:18;13.10;99.90
10885;DHT22;5495;53.252;10.390;2022-10-17T02:24:50;13.20;99.90
10885;DHT22;5495;53.252;10.390;2022-10-17T02:27:24;13.20;99.90
10885;DHT22;5495;53.252;10.390;2022-10-17T02:29:59;13.20;99.90
10885;DHT22;5495;53.252;10.390;2022-10-17T02:32:33;13.20;99.90
10885;DHT22;5495;53.252;10.390;2022-10-17T02:35:02;13.20;99.90
10885;DHT22;5495;53.252;10.390;2022-10-17T02:37:31;13.20;99.90
10885;DHT22;5495;53.252;10.390;2022-10-17T02:40:00;13.20;99.90
10885;DHT22;5495;53.252;10.390;2022-10-17T02:42:28;13.20;99.90
10885;DHT22;5495;53.252;10.390;2022-10-17T02:44:58;13.20;99.90
10885;DHT22;5495;53.252;10.390;2022-10-17T02:47:32;13.20;99.90
10885;DHT22;5495;53.252;10.390;2022-10-17T02:50:00;13.20;99.90
10885;DHT22;5495;53.252;10.390;2022-10-17T02:52:34;13.20;99.90
10885;DHT22;5495;53.252;10.390;2022-10-17T02:55:07;13.10;99.90
10885;DHT22;5495;53.252;10.390;2022-10-17T02:57:40;13.10;99.90
10885;DHT22;5495;53.252;10.390;2022-10-17T03:00:11;13.10;99.90
10885;DHT22;5495;53.252;10.390;2022-10-17T03:03:15;13.00;99.90
10885;DHT22;5495;53.252;10.390;2022-10-17T03:05:44;13.00;99.90
10885;DHT22;5495;53.252;10.390;2022-10-17T03:08:11;13.00;99.90
10885;DHT22;5495;53.252;10.390;2022-10-17T03:10:39;12.90;99.90
10885;DHT22;5495;53.252;10.390;2022-10-17T03:13:06;12.90;99.90
10885;DHT22;5495;53.252;10.390;2022-10-17T03:15:34;12.90;99.90
10885;DHT22;5495;53.252;10.390;2022-10-17T03:18:01;12.90;99.90
10885;DHT22;5495;53.252;10.390;2022-10-17T03:20:30;12.80;99.90
10885;DHT22;5495;53.252;10.390;2022-10-17T03:22:58;12.90;99.90
10885;DHT22;5495;53.252;10.390;2022-10-17T03:25:25;12.90;99.90
10885;DHT22;5495;53.252;10.390;2022-10-17T03:27:53;12.80;99.90
10885;DHT22;5495;53.252;10.390;2022-10-17T03:30:20;12.90;99.90
10885;DHT22;5495;53.252;10.390;2022-10-17T03:32:48;12.90;99.90
10885;DHT22;5495;53.252;10.390;2022-10-17T03:35:15;12.90;99.90
10885;DHT22;5495;53.252;10.390;2022-10-17T03:37:48;12.90;99.90
10885;DHT22;5495;53.252;10.390;2022-10-17T03:40:19;12.90;99.90
10885;DHT22;5495;53.252;10.390;2022-10-17T03:42:47;13.00;99.90
10885;DHT22;5495;53.252;10.390;2022-10-17T03:45:15;13.00;99.90
10885;DHT22;5495;53.252;10.390;2022-10-17T03:47:43;13.00;99.90
10885;DHT22;5495;53.252;10.390;2022-10-17T03:50:10;13.00;99.90
10885;DHT22;5495;53.252;10.390;2022-10-17T03:52:38;13.00;99.90
10885;DHT22;5495;53.252;10.390;2022-10-17T03:55:07;12.90;99.90
10885;DHT22;5495;53.252;10.390;2022-10-17T03:57:35;12.90;99.90
10885;DHT22;5495;53.252;10.390;2022-10-17T04:00:04;12.90;99.90
10885;DHT22;5495;53.252;10.390;2022-10-17T04:02:31;12.80;99.90
10885;DHT22;5495;53.252;10.390;2022-10-17T04:05:00;12.80;99.90
10885;DHT22;5495;53.252;10.390;2022-10-17T04:07:28;12.80;99.90
10885;DHT22;5495;53.252;10.390;2022-10-17T04:09:55;12.80;99.90
10885;DHT22;5495;53.252;10.390;2022-10-17T04:12:24;12.80;99.90
10885;DHT22;5495;53.252;10.390;2022-10-17T04:14:51;12.80;99.90
10885;DHT22;5495;53.252;10.390;2022-10-17T04:17:19;12.70;99.90
10885;DHT22;5495;53.252;10.390;2022-10-17T04:19:48;12.70;99.90
10885;DHT22;5495;53.252;10.390;2022-10-17T04:22:16;12.70;99.90
10885;DHT22;5495;53.252;10.390;2022-10-17T04:24:43;12.70;99.90
10885;DHT22;5495;53.252;10.390;2022-10-17T04:27:11;12.60;99.90
10885;DHT22;5495;53.252;10.390;2022-10-17T04:29:40;12.60;99.90
10885;DHT22;5495;53.252;10.390;2022-10-17T04:32:08;12.70;99.90
10885;DHT22;5495;53.252;10.390;2022-10-17T04:34:36;12.60;99.90
10885;DHT22;5495;53.252;10.390;2022-10-17T04:37:06;12.60;99.90
10885;DHT22;5495;53.252;10.390;2022-10-17T04:39:34;12.60;99.90
10885;DHT22;5495;53.252;10.390;2022-10-17T04:42:02;12.60;99.90
10885;DHT22;5495;53.252;10.390;2022-10-17T04:44:31;12.50;99.90
10885;DHT22;5495;53.252;10.390;2022-10-17T04:47:01;12.60;99.90
10885;DHT22;5495;53.252;10.390;2022-10-17T04:49:29;12.60;99.90
10885;DHT22;5495;53.252;10.390;2022-10-17T04:51:56;12.60;99.90
10885;DHT22;5495;53.252;10.390;2022-10-17T04:54:24;12.60;99.90
10885;DHT22;5495;53.252;10.390;2022-10-17T04:56:51;12.60;99.90
10885;DHT22;5495;53.252;10.390;2022-10-17T04:59:19;12.60;99.90
10885;DHT22;5495;53.252;10.390;2022-10-17T05:01:48;12.60;99.90
10885;DHT22;5495;53.252;10.390;2022-10-17T05:04:16;12.60;99.90
10885;DHT22;5495;53.252;10.390;2022-10-17T05:07:02;12.60;99.90
10885;DHT22;5495;53.252;10.390;2022-10-17T05:09:33;12.60;99.90
10885;DHT22;5495;53.252;10.390;2022-10-17T05:12:01;12.50;99.90
10885;DHT22;5495;53.252;10.390;2022-10-17T05:14:29;12.50;99.90
10885;DHT22;5495;53.252;10.390;2022-10-17T05:16:56;12.50;99.90
10885;DHT22;5495;53.252;10.390;2022-10-17T05:19:25;12.50;99.90
10885;DHT22;5495;53.252;10.390;2022-10-17T05:21:54;12.50;99.90
10885;DHT22;5495;53.252;10.390;2022-10-17T05:24:22;12.50;99.90
10885;DHT22;5495;53.252;10.390;2022-10-17T05:26:49;12.50;99.90
10885;DHT22;5495;53.252;10.390;2022-10-17T05:29:17;12.50;99.90
10885;DHT22;5495;53.252;10.390;2022-10-17T05:31:45;12.50;99.90
10885;DHT22;5495;53.252;10.390;2022-10-17T05:34:12;12.50;99.90
10885;DHT22;5495;53.252;10.390;2022-10-17T05:36:42;12.50;99.90
10885;DHT22;5495;53.252;10.390;2022-10-17T05:39:11;12.50;99.90
10885;DHT22;5495;53.252;10.390;2022-10-17T05:41:39;12.60;99.90
10885;DHT22;5495;53.252;10.390;2022-10-17T05:44:08;12.60;99.90
10885;DHT22;5495;53.252;10.390;2022-10-17T05:46:36;12.90;99.90
10885;DHT22;5495;53.252;10.390;2022-10-17T05:49:04;10.50;99.90
10885;DHT22;5495;53.252;10.390;2022-10-17T05:51:35;12.70;99.90
10885;DHT22;5495;53.252;10.390;2022-10-17T05:54:10;12.70;99.90
10885;DHT22;5495;53.252;10.390;2022-10-17T05:56:38;15.30;99.90
10885;DHT22;5495;53.252;10.390;2022-10-17T05:59:05;12.70;99.90
10885;DHT22;5495;53.252;10.390;2022-10-17T06:01:33;12.80;99.90
10885;DHT22;5495;53.252;10.390;2022-10-17T06:04:00;12.80;99.90
10885;DHT22;5495;53.252;10.390;2022-10-17T06:06:28;12.90;99.90
10885;DHT22;5495;53.252;10.390;2022-10-17T06:08:55;12.90;99.90
10885;DHT22;5495;53.252;10.390;2022-10-17T06:11:27;12.90;99.90
10885;DHT22;5495;53.252;10.390;2022-10-17T06:13:59;12.90;99.90
10885;DHT22;5495;53.252;10.390;2022-10-17T06:16:28;13.00;99.90
10885;DHT22;5495;53.252;10.390;2022-10-17T06:19:02;13.30;99.90
10885;DHT22;5495;53.252;10.390;2022-10-17T06:21:30;13.00;99.90
10885;DHT22;5495;53.252;10.390;2022-10-17T06:24:03;13.00;99.90
10885;DHT22;5495;53.252;10.390;2022-10-17T06:26:36;13.00;99.90
10885;DHT22;5495;53.252;10.390;2022-10-17T06:29:04;13.10;99.90
10885;DHT22;5495;53.252;10.390;2022-10-17T06:31:31;13.10;99.90
10885;DHT22;5495;53.252;10.390;2022-10-17T06:33:59;13.10;99.90
10885;DHT22;5495;53.252;10.390;2022-10-17T06:36:31;13.10;99.90
10885;DHT22;5495;53.252;10.390;2022-10-17T06:39:01;13.10;99.90
10885;DHT22;5495;53.252;10.390;2022-10-17T06:41:31;12.70;99.90
10885;DHT22;5495;53.252;10.390;2022-10-17T06:44:05;13.10;99.90
10885;DHT22;5495;53.252;10.390;2022-10-17T06:46:45;13.40;99.90
10885;DHT22;5495;53.252;10.390;2022-10-17T06:49:14;13.20;99.90
10885;DHT22;5495;53.252;10.390;2022-10-17T06:51:42;13.20;99.90
10885;DHT22;5495;53.252;10.390;2022-10-17T06:54:09;13.20;99.90
10885;DHT22;5495;53.252;10.390;2022-10-17T06:56:42;13.30;99.90
10885;DHT22;5495;53.252;10.390;2022-10-17T06:59:11;13.30;99.90
10885;DHT22;5495;53.252;10.390;2022-10-17T07:01:40;13.40;99.90
10885;DHT22;5495;53.252;10.390;2022-10-17T07:04:13;13.40;99.90
10885;DHT22;5495;53.252;10.390;2022-10-17T07:06:41;12.20;99.90
10885;DHT22;5495;53.252;10.390;2022-10-17T07:09:08;13.40;99.90
10885;DHT22;5495;53.252;10.390;2022-10-17T07:11:40;13.50;99.90
10885;DHT22;5495;53.252;10.390;2022-10-17T07:14:08;13.50;99.90
10885;DHT22;5495;53.252;10.390;2022-10-17T07:16:41;13.60;99.90
10885;DHT22;5495;53.252;10.390;2022-10-17T07:19:10;11.90;99.90
10885;DHT22;5495;53.252;10.390;2022-10-17T07:21:37;13.60;99.90
10885;DHT22;5495;53.252;10.390;2022-10-17T07:24:05;13.70;99.90
10885;DHT22;5495;53.252;10.390;2022-10-17T07:26:33;13.70;99.90
10885;DHT22;5495;53.252;10.390;2022-10-17T07:29:01;13.80;99.90
10885;DHT22;5495;53.252;10.390;2022-10-17T07:31:28;13.90;99.90
10885;DHT22;5495;53.252;10.390;2022-10-17T07:34:02;14.00;99.90
10885;DHT22;5495;53.252;10.390;2022-10-17T07:36:30;14.00;99.90
10885;DHT22;5495;53.252;10.390;2022-10-17T07:38:57;14.10;99.90
10885;DHT22;5495;53.252;10.390;2022-10-17T07:41:25;14.10;99.90
10885;DHT22;5495;53.252;10.390;2022-10-17T07:43:53;14.20;99.90
10885;DHT22;5495;53.252;10.390;2022-10-17T07:46:20;14.20;99.90
10885;DHT22;5495;53.252;10.390;2022-10-17T07:48:49;14.10;99.90
10885;DHT22;5495;53.252;10.390;2022-10-17T07:51:18;12.20;99.90
10885;DHT22;5495;53.252;10.390;2022-10-17T07:53:46;14.10;99.90
10885;DHT22;5495;53.252;10.390;2022-10-17T07:56:15;14.20;99.90
10885;DHT22;5495;53.252;10.390;2022-10-17T07:58:49;14.20;99.90
10885;DHT22;5495;53.252;10.390;2022-10-17T08:01:17;14.20;99.90
10885;DHT22;5495;53.252;10.390;2022-10-17T08:03:46;14.30;99.90
10885;DHT22;5495;53.252;10.390;2022-10-17T08:06:14;14.30;99.90
10885;DHT22;5495;53.252;10.390;2022-10-17T08:08:43;14.30;99.90
10885;DHT22;5495;53.252;10.390;2022-10-17T08:11:14;14.40;99.90
10885;DHT22;5495;53.252;10.390;2022-10-17T08:13:42;14.50;99.90
10885;DHT22;5495;53.252;10.390;2022-10-17T08:16:12;14.70;99.90
10885;DHT22;5495;53.252;10.390;2022-10-17T08:18:48;14.80;99.90
10885;DHT22;5495;53.252;10.390;2022-10-17T08:21:15;14.90;99.90
10885;DHT22;5495;53.252;10.390;2022-10-17T08:23:50;15.00;99.90
10885;DHT22;5495;53.252;10.390;2022-10-17T08:26:18;15.00;99.90
10885;DHT22;5495;53.252;10.390;2022-10-17T08:28:45;15.10;99.90
10885;DHT22;5495;53.252;10.390;2022-10-17T08:31:17;15.60;99.90
10885;DHT22;5495;53.252;10.390;2022-10-17T08:33:46;15.00;99.90
10885;DHT22;5495;53.252;10.390;2022-10-17T08:36:17;15.20;99.90
10885;DHT22;5495;53.252;10.390;2022-10-17T08:38:46;15.30;99.90
10885;DHT22;5495;53.252;10.390;2022-10-17T08:41:24;15.30;99.90
10885;DHT22;5495;53.252;10.390;2022-10-17T08:44:06;15.40;99.90
10885;DHT22;5495;53.252;10.390;2022-10-17T08:46:40;15.30;99.90
10885;DHT22;5495;53.252;10.390;2022-10-17T08:49:13;15.50;99.90
10885;DHT22;5495;53.252;10.390;2022-10-17T08:51:48;15.50;99.90
10885;DHT22;5495;53.252;10.390;2022-10-17T08:54:24;15.50;99.90
10885;DHT22;5495;53.252;10.390;2022-10-17T08:56:54;15.70;99.90
10885;DHT22;5495;53.252;10.390;2022-10-17T08:59:25;15.60;99.90
10885;DHT22;5495;53.252;10.390;2022-10-17T09:02:00;15.60;99.90
10885;DHT22;5495;53.252;10.390;2022-10-17T09:04:48;15.70;99.90
10885;DHT22;5495;53.252;10.390;2022-10-17T09:07:29;15.80;99.90
10885;DHT22;5495;53.252;10.390;2022-10-17T09:10:06;15.70;99.90
10885;DHT22;5495;53.252;10.390;2022-10-17T09:12:42;15.70;99.90
10885;DHT22;5495;53.252;10.390;2022-10-17T09:18:14;15.80;99.90
10885;DHT22;5495;53.252;10.390;2022-10-17T09:20:50;15.90;99.90
10885;DHT22;5495;53.252;10.390;2022-10-17T09:23:34;16.30;99.90
10885;DHT22;5495;53.252;10.390;2022-10-17T09:26:10;16.10;99.90
10885;DHT22;5495;53.252;10.390;2022-10-17T09:28:39;16.20;99.90
10885;DHT22;5495;53.252;10.390;2022-10-17T09:31:11;16.30;99.90
10885;DHT22;5495;53.252;10.390;2022-10-17T09:33:42;16.40;99.90
10885;DHT22;5495;53.252;10.390;2022-10-17T09:36:13;16.30;99.90
10885;DHT22;5495;53.252;10.390;2022-10-17T09:38:44;16.40;99.90
10885;DHT22;5495;53.252;10.390;2022-10-17T09:41:19;16.50;99.90
10885;DHT22;5495;53.252;10.390;2022-10-17T09:43:55;16.60;99.90
10885;DHT22;5495;53.252;10.390;2022-10-17T09:46:29;16.60;99.90
10885;DHT22;5495;53.252;10.390;2022-10-17T09:49:02;16.70;99.90
10885;DHT22;5495;53.252;10.390;2022-10-17T09:51:36;16.70;99.90
10885;DHT22;5495;53.252;10.390;2022-10-17T09:54:14;16.80;99.90
10885;DHT22;5495;53.252;10.390;2022-10-17T09:57:00;16.90;99.90
10885;DHT22;5495;53.252;10.390;2022-10-17T09:59:38;17.00;99.90
10885;DHT22;5495;53.252;10.390;2022-10-17T10:02:18;16.40;99.90
10885;DHT22;5495;53.252;10.390;2022-10-17T10:04:57;17.00;99.90
10885;DHT22;5495;53.252;10.390;2022-10-17T10:07:26;17.10;99.90
10885;DHT22;5495;53.252;10.390;2022-10-17T10:09:55;17.20;99.90
10885;DHT22;5495;53.252;10.390;2022-10-17T10:12:30;17.30;99.90
10885;DHT22;5495;53.252;10.390;2022-10-17T10:15:30;17.30;99.90
10885;DHT22;5495;53.252;10.390;2022-10-17T10:18:11;17.40;99.90
10885;DHT22;5495;53.252;10.390;2022-10-17T10:21:04;17.50;99.90
10885;DHT22;5495;53.252;10.390;2022-10-17T10:23:40;18.00;99.90
10885;DHT22;5495;53.252;10.390;2022-10-17T10:26:21;20.20;99.90
10885;DHT22;5495;53.252;10.390;2022-10-17T10:29:03;17.50;99.90
10885;DHT22;5495;53.252;10.390;2022-10-17T10:31:35;17.70;99.90
10885;DHT22;5495;53.252;10.390;2022-10-17T10:34:17;17.60;99.90
10885;DHT22;5495;53.252;10.390;2022-10-17T10:37:00;17.60;99.90
10885;DHT22;5495;53.252;10.390;2022-10-17T10:39:37;17.60;99.90
10885;DHT22;5495;53.252;10.390;2022-10-17T10:42:20;17.60;99.90
10885;DHT22;5495;53.252;10.390;2022-10-17T10:44:57;17.70;99.90
10885;DHT22;5495;53.252;10.390;2022-10-17T10:47:28;17.90;99.90
10885;DHT22;5495;53.252;10.390;2022-10-17T10:50:21;18.10;99.90
10885;DHT22;5495;53.252;10.390;2022-10-17T10:52:57;18.20;99.90
10885;DHT22;5495;53.252;10.390;2022-10-17T10:55:47;18.20;99.90
10885;DHT22;5495;53.252;10.390;2022-10-17T10:58:25;16.10;99.90
10885;DHT22;5495;53.252;10.390;2022-10-17T11:01:16;18.10;99.90
10885;DHT22;5495;53.252;10.390;2022-10-17T11:03:58;18.10;99.90
10885;DHT22;5495;53.252;10.390;2022-10-17T11:06:33;18.00;99.90
10885;DHT22;5495;53.252;10.390;2022-10-17T11:09:15;17.80;99.90
10885;DHT22;5495;53.252;10.390;2022-10-17T11:11:49;17.80;99.90
10885;DHT22;5495;53.252;10.390;2022-10-17T11:14:39;17.70;99.90
10885;DHT22;5495;53.252;10.390;2022-10-17T11:17:18;17.60;99.90
10885;DHT22;5495;53.252;10.390;2022-10-17T11:19:58;17.50;99.90
10885;DHT22;5495;53.252;10.390;2022-10-17T11:22:30;17.50;99.90
10885;DHT22;5495;53.252;10.390;2022-10-17T11:24:59;17.50;99.90
10885;DHT22;5495;53.252;10.390;2022-10-17T11:27:30;17.60;99.90
10885;DHT22;5495;53.252;10.390;2022-10-17T11:30:00;17.50;99.90
10885;DHT22;5495;53.252;10.390;2022-10-17T11:32:35;15.60;99.90
10885;DHT22;5495;53.252;10.390;2022-10-17T11:35:13;17.70;99.90
10885;DHT22;5495;53.252;10.390;2022-10-17T11:37:46;18.00;99.90
10885;DHT22;5495;53.252;10.390;2022-10-17T11:40:20;18.20;99.90
10885;DHT22;5495;53.252;10.390;2022-10-17T11:42:56;18.30;99.90
10885;DHT22;5495;53.252;10.390;2022-10-17T11:45:26;18.20;99.90
10885;DHT22;5495;53.252;10.390;2022-10-17T11:48:01;18.00;99.90
10885;DHT22;5495;53.252;10.390;2022-10-17T11:50:36;17.90;99.90
10885;DHT22;5495;53.252;10.390;2022-10-17T11:53:13;17.80;99.90
10885;DHT22;5495;53.252;10.390;2022-10-17T11:55:43;17.70;99.90
10885;DHT22;5495;53.252;10.390;2022-10-17T11:58:24;17.70;99.90
10885;DHT22;5495;53.252;10.390;2022-10-17T12:01:04;17.70;99.90
10885;DHT22;5495;53.252;10.390;2022-10-17T12:03:48;17.60;99.90
10885;DHT22;5495;53.252;10.390;2022-10-17T12:06:33;17.50;99.90
10885;DHT22;5495;53.252;10.390;2022-10-17T12:09:10;17.50;99.90
10885;DHT22;5495;53.252;10.390;2022-10-17T12:11:47;17.40;99.90
10885;DHT22;5495;53.252;10.390;2022-10-17T12:14:34;17.40;99.90
10885;DHT22;5495;53.252;10.390;2022-10-17T12:17:05;17.10;99.90
10885;DHT22;5495;53.252;10.390;2022-10-17T12:19:41;17.30;99.90
10885;DHT22;5495;53.252;10.390;2022-10-17T12:22:20;17.30;99.90
10885;DHT22;5495;53.252;10.390;2022-10-17T12:24:58;17.30;99.90
10885;DHT22;5495;53.252;10.390;2022-10-17T12:27:35;17.30;99.90
10885;DHT22;5495;53.252;10.390;2022-10-17T12:30:13;17.20;99.90
10885;DHT22;5495;53.252;10.390;2022-10-17T12:33:01;17.20;99.90
10885;DHT22;5495;53.252;10.390;2022-10-17T12:35:37;17.20;99.90
10885;DHT22;5495;53.252;10.390;2022-10-17T12:38:20;17.10;99.90
10885;DHT22;5495;53.252;10.390;2022-10-17T12:41:06;17.50;99.90
10885;DHT22;5495;53.252;10.390;2022-10-17T12:44:10;17.20;99.90
10885;DHT22;5495;53.252;10.390;2022-10-17T12:46:48;17.70;99.90
10885;DHT22;5495;53.252;10.390;2022-10-17T12:49:38;17.30;99.90
10885;DHT22;5495;53.252;10.390;2022-10-17T12:55:22;17.30;99.90
10885;DHT22;5495;53.252;10.390;2022-10-17T12:57:56;17.30;99.90
10885;DHT22;5495;53.252;10.390;2022-10-17T13:00:41;17.30;99.90
10885;DHT22;5495;53.252;10.390;2022-10-17T13:03:13;17.40;99.90
10885;DHT22;5495;53.252;10.390;2022-10-17T13:05:44;17.30;99.90
10885;DHT22;5495;53.252;10.390;2022-10-17T13:08:22;17.30;99.90
10885;DHT22;5495;53.252;10.390;2022-10-17T13:10:53;17.20;99.90
10885;DHT22;5495;53.252;10.390;2022-10-17T13:13:24;17.20;99.90
10885;DHT22;5495;53.252;10.390;2022-10-17T13:15:58;17.20;99.90
10885;DHT22;5495;53.252;10.390;2022-10-17T13:18:32;17.30;99.90
10885;DHT22;5495;53.252;10.390;2022-10-17T13:21:15;17.40;99.90
10885;DHT22;5495;53.252;10.390;2022-10-17T13:23:45;17.20;99.90
10885;DHT22;5495;53.252;10.390;2022-10-17T13:26:19;16.60;99.90
10885;DHT22;5495;53.252;10.390;2022-10-17T13:29:10;17.30;99.90
10885;DHT22;5495;53.252;10.390;2022-10-17T13:31:42;18.00;99.90
10885;DHT22;5495;53.252;10.390;2022-10-17T13:34:17;17.20;99.90
10885;DHT22;5495;53.252;10.390;2022-10-17T13:36:46;17.20;99.90
10885;DHT22;5495;53.252;10.390;2022-10-17T13:39:17;17.30;99.90
10885;DHT22;5495;53.252;10.390;2022-10-17T13:41:52;17.20;99.90
10885;DHT22;5495;53.252;10.390;2022-10-17T13:44:35;17.20;99.90
10885;DHT22;5495;53.252;10.390;2022-10-17T13:47:21;17.20;99.90
10885;DHT22;5495;53.252;10.390;2022-10-17T13:49:50;17.20;99.90
10885;DHT22;5495;53.252;10.390;2022-10-17T13:52:25;17.20;99.90
10885;DHT22;5495;53.252;10.390;2022-10-17T13:54:59;17.20;99.90
10885;DHT22;5495;53.252;10.390;2022-10-17T13:57:37;17.20;99.90
10885;DHT22;5495;53.252;10.390;2022-10-17T14:00:14;17.20;99.90
10885;DHT22;5495;53.252;10.390;2022-10-17T14:02:45;15.60;99.90
10885;DHT22;5495;53.252;10.390;2022-10-17T14:05:15;17.20;99.90
10885;DHT22;5495;53.252;10.390;2022-10-17T14:07:45;17.20;99.90
10885;DHT22;5495;53.252;10.390;2022-10-17T14:10:21;17.10;99.90
10885;DHT22;5495;53.252;10.390;2022-10-17T14:12:58;17.20;99.90
10885;DHT22;5495;53.252;10.390;2022-10-17T14:15:30;17.20;99.90
10885;DHT22;5495;53.252;10.390;2022-10-17T14:18:07;17.10;99.90
10885;DHT22;5495;53.252;10.390;2022-10-17T14:20:36;17.10;99.90
10885;DHT22;5495;53.252;10.390;2022-10-17T14:23:29;17.10;99.90
10885;DHT22;5495;53.252;10.390;2022-10-17T14:26:13;17.00;99.90
10885;DHT22;5495;53.252;10.390;2022-10-17T14:29:19;17.30;99.90
10885;DHT22;5495;53.252;10.390;2022-10-17T14:31:55;17.00;99.90
10885;DHT22;5495;53.252;10.390;2022-10-17T14:34:26;17.00;99.90
10885;DHT22;5495;53.252;10.390;2022-10-17T14:36:55;17.00;99.90
10885;DHT22;5495;53.252;10.390;2022-10-17T14:39:24;17.00;99.90
10885;DHT22;5495;53.252;10.390;2022-10-17T14:41:55;17.00;99.90
10885;DHT22;5495;53.252;10.390;2022-10-17T14:44:28;17.00;99.90
10885;DHT22;5495;53.252;10.390;2022-10-17T14:47:20;16.90;99.90
10885;DHT22;5495;53.252;10.390;2022-10-17T14:50:22;19.10;99.90
10885;DHT22;5495;53.252;10.390;2022-10-17T14:53:02;17.00;99.90
10885;DHT22;5495;53.252;10.390;2022-10-17T14:55:39;17.00;99.90
10885;DHT22;5495;53.252;10.390;2022-10-17T14:58:16;17.00;99.90
10885;DHT22;5495;53.252;10.390;2022-10-17T15:00:48;17.00;99.90
10885;DHT22;5495;53.252;10.390;2022-10-17T15:03:15;17.00;99.90
10885;DHT22;5495;53.252;10.390;2022-10-17T15:05:47;17.00;99.90
10885;DHT22;5495;53.252;10.390;2022-10-17T15:08:15;16.90;99.90
10885;DHT22;5495;53.252;10.390;2022-10-17T15:10:45;16.90;99.90
10885;DHT22;5495;53.252;10.390;2022-10-17T15:13:17;16.90;99.90
10885;DHT22;5495;53.252;10.390;2022-10-17T15:15:51;16.90;99.90
10885;DHT22;5495;53.252;10.390;2022-10-17T15:18:18;16.90;99.90
10885;DHT22;5495;53.252;10.390;2022-10-17T15:20:49;16.70;99.90
10885;DHT22;5495;53.252;10.390;2022-10-17T15:23:20;16.90;99.90
10885;DHT22;5495;53.252;10.390;2022-10-17T15:25:48;17.00;99.90
10885;DHT22;5495;53.252;10.390;2022-10-17T15:28:19;16.90;99.90
10885;DHT22;5495;53.252;10.390;2022-10-17T15:30:54;16.80;99.90
10885;DHT22;5495;53.252;10.390;2022-10-17T15:33:33;16.80;99.90
10885;DHT22;5495;53.252;10.390;2022-10-17T15:36:01;16.80;99.90
10885;DHT22;5495;53.252;10.390;2022-10-17T15:38:30;16.80;99.90
10885;DHT22;5495;53.252;10.390;2022-10-17T15:40:57;16.80;99.90
10885;DHT22;5495;53.252;10.390;2022-10-17T15:43:24;16.70;99.90
10885;DHT22;5495;53.252;10.390;2022-10-17T15:45:55;16.70;99.90
10885;DHT22;5495;53.252;10.390;2022-10-17T15:48:26;16.70;99.90
10885;DHT22;5495;53.252;10.390;2022-10-17T15:50:54;16.70;99.90
10885;DHT22;5495;53.252;10.390;2022-10-17T15:53:26;16.70;99.90
10885;DHT22;5495;53.252;10.390;2022-10-17T15:55:57;16.70;99.90
10885;DHT22;5495;53.252;10.390;2022-10-17T15:58:37;16.70;99.90
10885;DHT22;5495;53.252;10.390;2022-10-17T16:01:26;16.60;99.90
10885;DHT22;5495;53.252;10.390;2022-10-17T16:04:04;16.30;99.90
10885;DHT22;5495;53.252;10.390;2022-10-17T16:06:35;16.90;99.90
10885;DHT22;5495;53.252;10.390;2022-10-17T16:09:25;16.60;99.90
10885;DHT22;5495;53.252;10.390;2022-10-17T16:12:16;16.20;99.90
10885;DHT22;5495;53.252;10.390;2022-10-17T16:14:50;16.50;99.90
10885;DHT22;5495;53.252;10.390;2022-10-17T16:17:28;16.50;99.90
10885;DHT22;5495;53.252;10.390;2022-10-17T16:20:00;16.50;99.90
10885;DHT22;5495;53.252;10.390;2022-10-17T16:22:30;16.50;99.90
10885;DHT22;5495;53.252;10.390;2022-10-17T16:25:06;16.70;99.90